sensor_id;sensor_type;location;lat;lon;timestamp;P1;durP1;ratioP1;P2;durP2;ratioP2
6928;SDS011;3504;52.616;13.238;2023-03-07T00:00:56;12.77;;;7.60;;
6928;SDS011;3504;52.616;13.238;2023-03-07T00:06:01;11.97;;;8.10;;
6928;SDS011;3504;52.616;13.238;2023-03-07T00:11:05;15.73;;;7.80;;
6928;SDS011;3504;52.616;13.238;2023-03-07T00:16:09;16.47;;;8.77;;
6928;SDS011;3504;52.616;13.238;2023-03-07T00:21:14;15.73;;;9.53;;
6928;SDS011;3504;52.616;13.238;2023-03-07T00:26:18;15.73;;;9.63;;
6928;SDS011;3504;52.616;13.238;2023-03-07T00:31:21;16.97;;;9.87;;
6928;SDS011;3504;52.616;13.238;2023-03-07T00:36:22;18.80;;;10.27;;
6928;SDS011;3504;52.616;13.238;2023-03-07T00:41:24;19.87;;;11.70;;
6928;SDS011;3504;52.616;13.238;2023-03-07T00:46:26;18.57;;;10.33;;
6928;SDS011;3504;52.616;13.238;2023-03-07T00:51:27;19.40;;;10.90;;
6928;SDS011;3504;52.616;13.238;2023-03-07T00:56:28;20.23;;;11.73;;
6928;SDS011;3504;52.616;13.238;2023-03-07T01:01:28;21.63;;;12.10;;
6928;SDS011;3504;52.616;13.238;2023-03-07T01:06:30;21.87;;;12.33;;
6928;SDS011;3504;52.616;13.238;2023-03-07T01:11:32;22.37;;;12.73;;
6928;SDS011;3504;52.616;13.238;2023-03-07T01:16:36;24.63;;;13.50;;
6928;SDS011;3504;52.616;13.238;2023-03-07T01:21:38;36.50;;;17.77;;
6928;SDS011;3504;52.616;13.238;2023-03-07T01:26:41;34.50;;;19.07;;
6928;SDS011;3504;52.616;13.238;2023-03-07T01:31:41;35.70;;;18.83;;
6928;SDS011;3504;52.616;13.238;2023-03-07T01:36:42;38.80;;;19.97;;
6928;SDS011;3504;52.616;13.238;2023-03-07T01:41:43;38.50;;;20.17;;
6928;SDS011;3504;52.616;13.238;2023-03-07T01:46:52;41.47;;;20.93;;
6928;SDS011;3504;52.616;13.238;2023-03-07T01:52:03;36.93;;;21.17;;
6928;SDS011;3504;52.616;13.238;2023-03-07T01:57:11;40.77;;;21.33;;
6928;SDS011;3504;52.616;13.238;2023-03-07T02:02:13;39.33;;;22.00;;
6928;SDS011;3504;52.616;13.238;2023-03-07T02:07:16;40.97;;;22.40;;
6928;SDS011;3504;52.616;13.238;2023-03-07T02:12:19;43.40;;;23.07;;
6928;SDS011;3504;52.616;13.238;2023-03-07T02:17:20;47.33;;;24.33;;
6928;SDS011;3504;52.616;13.238;2023-03-07T02:22:21;43.83;;;24.37;;
6928;SDS011;3504;52.616;13.238;2023-03-07T02:27:25;45.93;;;23.93;;
6928;SDS011;3504;52.616;13.238;2023-03-07T02:32:28;47.37;;;24.97;;
6928;SDS011;3504;52.616;13.238;2023-03-07T02:37:30;43.87;;;22.97;;
6928;SDS011;3504;52.616;13.238;2023-03-07T02:42:36;42.00;;;21.23;;
6928;SDS011;3504;52.616;13.238;2023-03-07T02:47:44;44.17;;;23.07;;
6928;SDS011;3504;52.616;13.238;2023-03-07T02:52:48;46.77;;;21.97;;
6928;SDS011;3504;52.616;13.238;2023-03-07T02:57:49;43.37;;;23.13;;
6928;SDS011;3504;52.616;13.238;2023-03-07T03:02:50;47.17;;;25.20;;
6928;SDS011;3504;52.616;13.238;2023-03-07T03:07:53;46.57;;;25.10;;
6928;SDS011;3504;52.616;13.238;2023-03-07T03:12:54;49.63;;;25.37;;
6928;SDS011;3504;52.616;13.238;2023-03-07T03:17:54;51.43;;;24.43;;
6928;SDS011;3504;52.616;13.238;2023-03-07T03:22:55;54.00;;;25.17;;
6928;SDS011;3504;52.616;13.238;2023-03-07T03:27:56;50.77;;;24.67;;
6928;SDS011;3504;52.616;13.238;2023-03-07T03:32:58;52.77;;;27.80;;
6928;SDS011;3504;52.616;13.238;2023-03-07T03:38:01;54.83;;;26.50;;
6928;SDS011;3504;52.616;13.238;2023-03-07T03:43:01;53.20;;;26.83;;
6928;SDS011;3504;52.616;13.238;2023-03-07T03:48:02;52.03;;;24.80;;
6928;SDS011;3504;52.616;13.238;2023-03-07T03:53:03;46.47;;;24.37;;
6928;SDS011;3504;52.616;13.238;2023-03-07T03:58:04;50.87;;;25.93;;
6928;SDS011;3504;52.616;13.238;2023-03-07T04:03:04;50.03;;;23.70;;
6928;SDS011;3504;52.616;13.238;2023-03-07T04:08:06;52.10;;;26.20;;
6928;SDS011;3504;52.616;13.238;2023-03-07T04:13:09;47.77;;;24.47;;
6928;SDS011;3504;52.616;13.238;2023-03-07T04:18:09;51.67;;;24.40;;
6928;SDS011;3504;52.616;13.238;2023-03-07T04:23:10;46.90;;;23.87;;
6928;SDS011;3504;52.616;13.238;2023-03-07T04:28:11;44.23;;;23.40;;
6928;SDS011;3504;52.616;13.238;2023-03-07T04:33:12;45.03;;;23.87;;
6928;SDS011;3504;52.616;13.238;2023-03-07T04:38:13;49.67;;;24.33;;
6928;SDS011;3504;52.616;13.238;2023-03-07T04:43:15;47.70;;;23.57;;
6928;SDS011;3504;52.616;13.238;2023-03-07T04:48:15;51.13;;;24.17;;
6928;SDS011;3504;52.616;13.238;2023-03-07T04:53:16;48.83;;;24.00;;
6928;SDS011;3504;52.616;13.238;2023-03-07T04:58:19;49.50;;;24.27;;
6928;SDS011;3504;52.616;13.238;2023-03-07T05:03:20;46.03;;;23.83;;
6928;SDS011;3504;52.616;13.238;2023-03-07T05:08:22;49.03;;;23.87;;
6928;SDS011;3504;52.616;13.238;2023-03-07T05:13:23;48.87;;;22.90;;
6928;SDS011;3504;52.616;13.238;2023-03-07T05:18:24;43.50;;;22.53;;
6928;SDS011;3504;52.616;13.238;2023-03-07T05:23:27;47.33;;;24.13;;
6928;SDS011;3504;52.616;13.238;2023-03-07T05:28:29;41.97;;;21.70;;
6928;SDS011;3504;52.616;13.238;2023-03-07T05:33:30;42.20;;;22.03;;
6928;SDS011;3504;52.616;13.238;2023-03-07T05:38:31;41.40;;;21.70;;
6928;SDS011;3504;52.616;13.238;2023-03-07T05:43:32;41.30;;;21.57;;
6928;SDS011;3504;52.616;13.238;2023-03-07T05:48:32;45.00;;;23.17;;
6928;SDS011;3504;52.616;13.238;2023-03-07T05:53:33;41.00;;;21.80;;
6928;SDS011;3504;52.616;13.238;2023-03-07T05:58:34;41.60;;;21.83;;
6928;SDS011;3504;52.616;13.238;2023-03-07T06:03:34;42.47;;;22.50;;
6928;SDS011;3504;52.616;13.238;2023-03-07T06:08:36;41.63;;;21.83;;
6928;SDS011;3504;52.616;13.238;2023-03-07T06:13:37;38.27;;;20.00;;
6928;SDS011;3504;52.616;13.238;2023-03-07T06:18:37;40.03;;;21.67;;
6928;SDS011;3504;52.616;13.238;2023-03-07T06:23:38;41.23;;;21.40;;
6928;SDS011;3504;52.616;13.238;2023-03-07T06:28:44;36.17;;;20.07;;
6928;SDS011;3504;52.616;13.238;2023-03-07T06:33:46;39.67;;;21.20;;
6928;SDS011;3504;52.616;13.238;2023-03-07T06:38:48;39.23;;;20.13;;
6928;SDS011;3504;52.616;13.238;2023-03-07T06:43:51;37.97;;;19.47;;
6928;SDS011;3504;52.616;13.238;2023-03-07T06:48:57;38.60;;;19.40;;
6928;SDS011;3504;52.616;13.238;2023-03-07T06:53:58;37.30;;;19.30;;
6928;SDS011;3504;52.616;13.238;2023-03-07T06:59:00;35.90;;;19.60;;
6928;SDS011;3504;52.616;13.238;2023-03-07T07:04:01;39.20;;;19.57;;
6928;SDS011;3504;52.616;13.238;2023-03-07T07:09:03;34.57;;;19.13;;
6928;SDS011;3504;52.616;13.238;2023-03-07T07:14:11;33.00;;;18.63;;
6928;SDS011;3504;52.616;13.238;2023-03-07T07:19:12;32.13;;;17.90;;
6928;SDS011;3504;52.616;13.238;2023-03-07T07:24:12;30.87;;;17.27;;
6928;SDS011;3504;52.616;13.238;2023-03-07T07:29:14;32.37;;;18.10;;
6928;SDS011;3504;52.616;13.238;2023-03-07T07:34:15;30.90;;;17.83;;
6928;SDS011;3504;52.616;13.238;2023-03-07T07:39:16;27.83;;;16.40;;
6928;SDS011;3504;52.616;13.238;2023-03-07T07:44:18;30.37;;;16.00;;
6928;SDS011;3504;52.616;13.238;2023-03-07T07:49:27;27.37;;;16.07;;
6928;SDS011;3504;52.616;13.238;2023-03-07T07:54:28;30.33;;;16.73;;
6928;SDS011;3504;52.616;13.238;2023-03-07T07:59:29;28.90;;;16.60;;
6928;SDS011;3504;52.616;13.238;2023-03-07T08:04:33;26.50;;;16.50;;
6928;SDS011;3504;52.616;13.238;2023-03-07T08:09:34;28.90;;;16.40;;
6928;SDS011;3504;52.616;13.238;2023-03-07T08:14:35;25.53;;;15.27;;
6928;SDS011;3504;52.616;13.238;2023-03-07T08:19:35;27.27;;;15.43;;
6928;SDS011;3504;52.616;13.238;2023-03-07T08:24:35;26.63;;;14.90;;
6928;SDS011;3504;52.616;13.238;2023-03-07T08:29:37;24.77;;;15.27;;
6928;SDS011;3504;52.616;13.238;2023-03-07T08:34:37;28.03;;;15.60;;
6928;SDS011;3504;52.616;13.238;2023-03-07T08:39:38;27.37;;;14.90;;
6928;SDS011;3504;52.616;13.238;2023-03-07T08:44:38;26.53;;;15.90;;
6928;SDS011;3504;52.616;13.238;2023-03-07T08:49:39;23.93;;;14.53;;
6928;SDS011;3504;52.616;13.238;2023-03-07T08:54:39;27.47;;;15.60;;
6928;SDS011;3504;52.616;13.238;2023-03-07T08:59:40;25.73;;;15.70;;
6928;SDS011;3504;52.616;13.238;2023-03-07T09:04:40;27.97;;;16.83;;
6928;SDS011;3504;52.616;13.238;2023-03-07T09:09:41;27.57;;;17.03;;
6928;SDS011;3504;52.616;13.238;2023-03-07T09:14:41;27.63;;;15.93;;
6928;SDS011;3504;52.616;13.238;2023-03-07T09:19:42;25.97;;;15.87;;
6928;SDS011;3504;52.616;13.238;2023-03-07T09:24:42;24.50;;;14.20;;
6928;SDS011;3504;52.616;13.238;2023-03-07T09:29:43;24.77;;;15.03;;
6928;SDS011;3504;52.616;13.238;2023-03-07T09:34:44;24.50;;;15.03;;
6928;SDS011;3504;52.616;13.238;2023-03-07T09:39:44;20.50;;;13.00;;
6928;SDS011;3504;52.616;13.238;2023-03-07T09:44:54;17.90;;;11.63;;
6928;SDS011;3504;52.616;13.238;2023-03-07T09:50:34;16.67;;;11.53;;
6928;SDS011;3504;52.616;13.238;2023-03-07T09:55:45;14.70;;;9.97;;
6928;SDS011;3504;52.616;13.238;2023-03-07T10:00:46;12.77;;;9.17;;
6928;SDS011;3504;52.616;13.238;2023-03-07T10:05:56;13.07;;;9.40;;
6928;SDS011;3504;52.616;13.238;2023-03-07T10:16:54;12.17;;;8.20;;
6928;SDS011;3504;52.616;13.238;2023-03-07T10:21:48;10.87;;;7.17;;
6928;SDS011;3504;52.616;13.238;2023-03-07T10:27:12;13.87;;;8.87;;
6928;SDS011;3504;52.616;13.238;2023-03-07T10:32:17;12.67;;;9.07;;
6928;SDS011;3504;52.616;13.238;2023-03-07T10:37:19;10.97;;;7.87;;
6928;SDS011;3504;52.616;13.238;2023-03-07T10:42:22;10.27;;;6.83;;
6928;SDS011;3504;52.616;13.238;2023-03-07T10:47:26;7.67;;;5.70;;
6928;SDS011;3504;52.616;13.238;2023-03-07T10:52:34;7.90;;;5.33;;
6928;SDS011;3504;52.616;13.238;2023-03-07T10:57:41;7.23;;;5.17;;
6928;SDS011;3504;52.616;13.238;2023-03-07T11:02:42;7.73;;;4.40;;
6928;SDS011;3504;52.616;13.238;2023-03-07T11:07:45;5.03;;;3.40;;
6928;SDS011;3504;52.616;13.238;2023-03-07T11:12:45;4.70;;;3.27;;
6928;SDS011;3504;52.616;13.238;2023-03-07T11:17:48;4.97;;;3.40;;
6928;SDS011;3504;52.616;13.238;2023-03-07T11:23:11;4.80;;;3.30;;
6928;SDS011;3504;52.616;13.238;2023-03-07T11:28:29;5.00;;;3.73;;
6928;SDS011;3504;52.616;13.238;2023-03-07T11:33:46;5.43;;;3.53;;
6928;SDS011;3504;52.616;13.238;2023-03-07T11:38:59;4.43;;;2.90;;
6928;SDS011;3504;52.616;13.238;2023-03-07T11:55:09;2.83;;;2.17;;
6928;SDS011;3504;52.616;13.238;2023-03-07T12:11:50;4.40;;;2.17;;
6928;SDS011;3504;52.616;13.238;2023-03-07T12:17:35;4.97;;;1.63;;
6928;SDS011;3504;52.616;13.238;2023-03-07T12:28:17;4.20;;;2.07;;
6928;SDS011;3504;52.616;13.238;2023-03-07T12:44:49;3.97;;;2.00;;
6928;SDS011;3504;52.616;13.238;2023-03-07T12:56:09;4.63;;;2.60;;
6928;SDS011;3504;52.616;13.238;2023-03-07T13:01:22;2.20;;;1.87;;
6928;SDS011;3504;52.616;13.238;2023-03-07T13:06:34;3.23;;;1.57;;
6928;SDS011;3504;52.616;13.238;2023-03-07T13:12:05;3.40;;;1.80;;
6928;SDS011;3504;52.616;13.238;2023-03-07T13:27:26;6.17;;;2.77;;
6928;SDS011;3504;52.616;13.238;2023-03-07T13:37:56;4.77;;;2.40;;
6928;SDS011;3504;52.616;13.238;2023-03-07T13:43:03;2.70;;;2.30;;
6928;SDS011;3504;52.616;13.238;2023-03-07T13:58:36;4.47;;;2.20;;
6928;SDS011;3504;52.616;13.238;2023-03-07T14:04:03;5.00;;;2.30;;
6928;SDS011;3504;52.616;13.238;2023-03-07T14:09:27;1.90;;;1.70;;
6928;SDS011;3504;52.616;13.238;2023-03-07T14:25:30;3.00;;;2.23;;
6928;SDS011;3504;52.616;13.238;2023-03-07T14:30:38;3.37;;;2.17;;
6928;SDS011;3504;52.616;13.238;2023-03-07T14:35:40;2.67;;;2.47;;
6928;SDS011;3504;52.616;13.238;2023-03-07T14:46:18;3.40;;;2.70;;
6928;SDS011;3504;52.616;13.238;2023-03-07T14:51:27;4.83;;;3.03;;
6928;SDS011;3504;52.616;13.238;2023-03-07T14:56:29;4.13;;;2.50;;
6928;SDS011;3504;52.616;13.238;2023-03-07T15:01:34;5.10;;;3.13;;
6928;SDS011;3504;52.616;13.238;2023-03-07T15:06:41;3.80;;;3.13;;
6928;SDS011;3504;52.616;13.238;2023-03-07T15:11:44;3.73;;;2.60;;
6928;SDS011;3504;52.616;13.238;2023-03-07T15:17:16;4.57;;;2.37;;
6928;SDS011;3504;52.616;13.238;2023-03-07T15:22:25;2.80;;;2.60;;
6928;SDS011;3504;52.616;13.238;2023-03-07T15:27:31;4.07;;;2.60;;
6928;SDS011;3504;52.616;13.238;2023-03-07T15:32:36;5.03;;;3.33;;
6928;SDS011;3504;52.616;13.238;2023-03-07T15:37:55;4.37;;;2.80;;
6928;SDS011;3504;52.616;13.238;2023-03-07T15:48:08;5.83;;;3.37;;
6928;SDS011;3504;52.616;13.238;2023-03-07T15:53:29;9.07;;;4.73;;
6928;SDS011;3504;52.616;13.238;2023-03-07T15:58:34;6.43;;;4.53;;
6928;SDS011;3504;52.616;13.238;2023-03-07T16:03:36;3.40;;;2.10;;
6928;SDS011;3504;52.616;13.238;2023-03-07T16:08:49;4.00;;;2.57;;
6928;SDS011;3504;52.616;13.238;2023-03-07T16:13:49;3.23;;;2.43;;
6928;SDS011;3504;52.616;13.238;2023-03-07T16:18:50;2.93;;;2.67;;
6928;SDS011;3504;52.616;13.238;2023-03-07T16:23:51;7.10;;;2.60;;
6928;SDS011;3504;52.616;13.238;2023-03-07T16:28:52;3.73;;;2.70;;
6928;SDS011;3504;52.616;13.238;2023-03-07T16:33:53;5.10;;;3.17;;
6928;SDS011;3504;52.616;13.238;2023-03-07T16:38:54;14.97;;;8.60;;
6928;SDS011;3504;52.616;13.238;2023-03-07T16:43:55;12.40;;;6.30;;
6928;SDS011;3504;52.616;13.238;2023-03-07T16:48:57;8.27;;;5.40;;
6928;SDS011;3504;52.616;13.238;2023-03-07T16:53:58;5.17;;;3.53;;
6928;SDS011;3504;52.616;13.238;2023-03-07T16:58:59;6.30;;;3.67;;
6928;SDS011;3504;52.616;13.238;2023-03-07T17:04:00;7.47;;;3.60;;
6928;SDS011;3504;52.616;13.238;2023-03-07T17:09:00;8.57;;;4.30;;
6928;SDS011;3504;52.616;13.238;2023-03-07T17:14:02;3.53;;;2.90;;
6928;SDS011;3504;52.616;13.238;2023-03-07T17:19:06;3.47;;;2.43;;
6928;SDS011;3504;52.616;13.238;2023-03-07T17:24:15;3.83;;;2.43;;
6928;SDS011;3504;52.616;13.238;2023-03-07T17:29:17;4.53;;;3.20;;
6928;SDS011;3504;52.616;13.238;2023-03-07T17:34:29;12.63;;;5.63;;
6928;SDS011;3504;52.616;13.238;2023-03-07T17:39:31;6.13;;;3.73;;
6928;SDS011;3504;52.616;13.238;2023-03-07T17:44:33;6.23;;;3.13;;
6928;SDS011;3504;52.616;13.238;2023-03-07T17:49:34;4.07;;;3.20;;
6928;SDS011;3504;52.616;13.238;2023-03-07T17:54:37;8.07;;;4.70;;
6928;SDS011;3504;52.616;13.238;2023-03-07T17:59:37;4.47;;;3.00;;
6928;SDS011;3504;52.616;13.238;2023-03-07T18:04:38;5.07;;;3.70;;
6928;SDS011;3504;52.616;13.238;2023-03-07T18:09:38;2.83;;;2.40;;
6928;SDS011;3504;52.616;13.238;2023-03-07T18:14:39;7.33;;;3.63;;
6928;SDS011;3504;52.616;13.238;2023-03-07T18:19:39;5.43;;;2.80;;
6928;SDS011;3504;52.616;13.238;2023-03-07T18:24:40;5.03;;;2.80;;
6928;SDS011;3504;52.616;13.238;2023-03-07T18:29:41;5.37;;;2.73;;
6928;SDS011;3504;52.616;13.238;2023-03-07T18:34:41;6.77;;;2.70;;
6928;SDS011;3504;52.616;13.238;2023-03-07T18:39:42;6.80;;;3.00;;
6928;SDS011;3504;52.616;13.238;2023-03-07T18:44:42;4.40;;;2.63;;
6928;SDS011;3504;52.616;13.238;2023-03-07T18:49:43;5.80;;;2.93;;
6928;SDS011;3504;52.616;13.238;2023-03-07T18:54:44;4.73;;;2.80;;
6928;SDS011;3504;52.616;13.238;2023-03-07T18:59:46;3.70;;;2.50;;
6928;SDS011;3504;52.616;13.238;2023-03-07T19:04:47;7.10;;;2.83;;
6928;SDS011;3504;52.616;13.238;2023-03-07T19:09:47;3.87;;;2.43;;
6928;SDS011;3504;52.616;13.238;2023-03-07T19:14:52;4.83;;;3.20;;
6928;SDS011;3504;52.616;13.238;2023-03-07T19:19:52;3.43;;;2.87;;
6928;SDS011;3504;52.616;13.238;2023-03-07T19:24:58;5.47;;;2.83;;
6928;SDS011;3504;52.616;13.238;2023-03-07T19:29:58;6.47;;;3.00;;
6928;SDS011;3504;52.616;13.238;2023-03-07T19:34:59;5.20;;;3.33;;
6928;SDS011;3504;52.616;13.238;2023-03-07T19:39:59;4.90;;;3.50;;
6928;SDS011;3504;52.616;13.238;2023-03-07T19:45:00;6.67;;;3.53;;
6928;SDS011;3504;52.616;13.238;2023-03-07T19:50:00;8.50;;;3.90;;
6928;SDS011;3504;52.616;13.238;2023-03-07T19:55:01;9.77;;;5.23;;
6928;SDS011;3504;52.616;13.238;2023-03-07T20:00:02;6.47;;;4.23;;
6928;SDS011;3504;52.616;13.238;2023-03-07T20:05:11;6.87;;;3.97;;
6928;SDS011;3504;52.616;13.238;2023-03-07T20:10:12;4.97;;;3.93;;
6928;SDS011;3504;52.616;13.238;2023-03-07T20:15:13;6.23;;;4.50;;
6928;SDS011;3504;52.616;13.238;2023-03-07T20:20:13;5.63;;;3.73;;
6928;SDS011;3504;52.616;13.238;2023-03-07T20:25:14;9.20;;;4.70;;
6928;SDS011;3504;52.616;13.238;2023-03-07T20:30:15;5.47;;;4.60;;
6928;SDS011;3504;52.616;13.238;2023-03-07T20:35:15;8.70;;;5.83;;
6928;SDS011;3504;52.616;13.238;2023-03-07T20:40:16;8.93;;;6.60;;
6928;SDS011;3504;52.616;13.238;2023-03-07T20:45:17;11.57;;;5.83;;
6928;SDS011;3504;52.616;13.238;2023-03-07T20:50:17;10.33;;;6.40;;
6928;SDS011;3504;52.616;13.238;2023-03-07T20:55:18;16.30;;;7.37;;
6928;SDS011;3504;52.616;13.238;2023-03-07T21:00:19;12.60;;;5.60;;
6928;SDS011;3504;52.616;13.238;2023-03-07T21:05:20;10.23;;;6.97;;
6928;SDS011;3504;52.616;13.238;2023-03-07T21:10:20;8.57;;;5.13;;
6928;SDS011;3504;52.616;13.238;2023-03-07T21:15:21;10.87;;;5.17;;
6928;SDS011;3504;52.616;13.238;2023-03-07T21:20:21;9.47;;;4.70;;
6928;SDS011;3504;52.616;13.238;2023-03-07T21:25:22;8.63;;;4.50;;
6928;SDS011;3504;52.616;13.238;2023-03-07T21:30:22;7.93;;;4.67;;
6928;SDS011;3504;52.616;13.238;2023-03-07T21:35:23;9.67;;;4.93;;
6928;SDS011;3504;52.616;13.238;2023-03-07T21:40:23;8.57;;;6.27;;
6928;SDS011;3504;52.616;13.238;2023-03-07T21:45:24;8.30;;;5.30;;
6928;SDS011;3504;52.616;13.238;2023-03-07T21:50:24;6.80;;;3.90;;
6928;SDS011;3504;52.616;13.238;2023-03-07T21:55:25;6.97;;;4.33;;
6928;SDS011;3504;52.616;13.238;2023-03-07T22:00:25;8.03;;;4.43;;
6928;SDS011;3504;52.616;13.238;2023-03-07T22:05:26;6.70;;;4.13;;
6928;SDS011;3504;52.616;13.238;2023-03-07T22:10:26;8.20;;;4.00;;
6928;SDS011;3504;52.616;13.238;2023-03-07T22:15:27;7.63;;;4.07;;
6928;SDS011;3504;52.616;13.238;2023-03-07T22:20:27;8.47;;;4.37;;
6928;SDS011;3504;52.616;13.238;2023-03-07T22:25:28;7.87;;;4.17;;
6928;SDS011;3504;52.616;13.238;2023-03-07T22:30:28;7.07;;;4.13;;
6928;SDS011;3504;52.616;13.238;2023-03-07T22:35:30;10.30;;;3.83;;
6928;SDS011;3504;52.616;13.238;2023-03-07T22:40:30;7.70;;;4.37;;
6928;SDS011;3504;52.616;13.238;2023-03-07T22:45:31;6.63;;;3.80;;
6928;SDS011;3504;52.616;13.238;2023-03-07T22:50:31;7.40;;;3.87;;
6928;SDS011;3504;52.616;13.238;2023-03-07T22:55:32;13.70;;;3.67;;
6928;SDS011;3504;52.616;13.238;2023-03-07T23:00:41;7.93;;;3.57;;
6928;SDS011;3504;52.616;13.238;2023-03-07T23:05:43;7.70;;;3.00;;
6928;SDS011;3504;52.616;13.238;2023-03-07T23:10:45;8.33;;;3.23;;
6928;SDS011;3504;52.616;13.238;2023-03-07T23:15:46;4.47;;;2.87;;
6928;SDS011;3504;52.616;13.238;2023-03-07T23:20:46;7.83;;;3.23;;
6928;SDS011;3504;52.616;13.238;2023-03-07T23:25:47;7.37;;;3.77;;
6928;SDS011;3504;52.616;13.238;2023-03-07T23:30:47;8.20;;;3.80;;
6928;SDS011;3504;52.616;13.238;2023-03-07T23:35:48;9.80;;;3.97;;
6928;SDS011;3504;52.616;13.238;2023-03-07T23:40:49;7.83;;;3.23;;
6928;SDS011;3504;52.616;13.238;2023-03-07T23:45:49;5.87;;;3.03;;
6928;SDS011;3504;52.616;13.238;2023-03-07T23:50:50;3.87;;;3.00;;
6928;SDS011;3504;52.616;13.238;2023-03-07T23:55:50;5.30;;;3.00;;
